<?xml version="1.0" encoding="UTF-8" standalone="no" ?>
<gpx xmlns="http://www.topografix.com/GPX/1/1" xmlns:xsi="http://www.w3.org/2001/XMLSchema-instance" xsi:schemaLocation="http://www.topografix.com/GPX/1/1 http://www.topografix.com/GPX/1/1/gpx.xsd" version="1.1" creator="VisuGPX - https://www.visugpx.com">
  <metadata>
    <name>81 rando passerelle hautpoul montagnés 15km 600d+</name>
    <desc><![CDATA[Rando pédestre départ Mazamet.]]></desc>
  </metadata>
  <trk>
    <name><![CDATA[passerelle hautpoul montagnés 15km 600d+]]></name>
    <trkseg>
      <trkpt lat="43.48177" lon="2.3759">
        <ele>289</ele>
        <time>2019-05-16T12:49:17.887Z</time>
      </trkpt>
      <trkpt lat="43.48177" lon="2.3759">
        <ele>289</ele>
        <time>2019-05-16T12:49:18.618Z</time>
      </trkpt>
      <trkpt lat="43.48177" lon="2.3759">
        <ele>289</ele>
        <time>2019-05-16T12:49:18.618Z</time>
      </trkpt>
      <trkpt lat="43.48191" lon="2.37644">
        <ele>284</ele>
        <time>2019-05-16T12:50:00.890Z</time>
      </trkpt>
      <trkpt lat="43.48191" lon="2.37644">
        <ele>284</ele>
        <time>2019-05-16T12:50:00.890Z</time>
      </trkpt>
      <trkpt lat="43.48195" lon="2.37711">
        <ele>292</ele>
        <time>2019-05-16T12:50:50.441Z</time>
      </trkpt>
      <trkpt lat="43.48177" lon="2.37743">
        <ele>298</ele>
        <time>2019-05-16T12:51:48.977Z</time>
      </trkpt>
      <trkpt lat="43.48135" lon="2.37749">
        <ele>301</ele>
        <time>2019-05-16T12:53:04.536Z</time>
      </trkpt>
      <trkpt lat="43.48134" lon="2.37754">
        <ele>320</ele>
        <time>2019-05-16T12:53:18.023Z</time>
      </trkpt>
      <trkpt lat="43.48128" lon="2.37754">
        <ele>321</ele>
        <time>2019-05-16T12:53:33.105Z</time>
      </trkpt>
      <trkpt lat="43.48116" lon="2.37779">
        <ele>326</ele>
        <time>2019-05-16T12:54:06.262Z</time>
      </trkpt>
      <trkpt lat="43.48058" lon="2.37783">
        <ele>341</ele>
        <time>2019-05-16T12:55:59.094Z</time>
      </trkpt>
      <trkpt lat="43.48058" lon="2.37783">
        <ele>341</ele>
        <time>2019-05-16T12:56:00.007Z</time>
      </trkpt>
      <trkpt lat="43.48058" lon="2.37783">
        <ele>341</ele>
        <time>2019-05-16T12:56:00.107Z</time>
      </trkpt>
      <trkpt lat="43.48058" lon="2.37783">
        <ele>341</ele>
        <time>2019-05-16T12:56:00.117Z</time>
      </trkpt>
      <trkpt lat="43.48034" lon="2.37733">
        <ele>320</ele>
        <time>2019-05-16T12:56:43.966Z</time>
      </trkpt>
      <trkpt lat="43.47971" lon="2.37659">
        <ele>330</ele>
        <time>2019-05-16T12:58:06.470Z</time>
      </trkpt>
      <trkpt lat="43.47971" lon="2.37659">
        <ele>330</ele>
        <time>2019-05-16T12:58:06.470Z</time>
      </trkpt>
      <trkpt lat="43.47953" lon="2.37558">
        <ele>329</ele>
        <time>2019-05-16T12:59:22.216Z</time>
      </trkpt>
      <trkpt lat="43.47953" lon="2.37558">
        <ele>329</ele>
        <time>2019-05-16T12:59:22.216Z</time>
      </trkpt>
      <trkpt lat="43.47966" lon="2.37498">
        <ele>321</ele>
        <time>2019-05-16T13:00:08.284Z</time>
      </trkpt>
      <trkpt lat="43.4798" lon="2.37437">
        <ele>315</ele>
        <time>2019-05-16T13:00:54.341Z</time>
      </trkpt>
      <trkpt lat="43.4798" lon="2.37433">
        <ele>315</ele>
        <time>2019-05-16T13:00:58.654Z</time>
      </trkpt>
      <trkpt lat="43.47972" lon="2.3743">
        <ele>317</ele>
        <time>2019-05-16T13:01:08.812Z</time>
      </trkpt>
      <trkpt lat="43.47949" lon="2.37461">
        <ele>325</ele>
        <time>2019-05-16T13:01:44.706Z</time>
      </trkpt>
      <trkpt lat="43.47949" lon="2.37459">
        <ele>325</ele>
        <time>2019-05-16T13:01:46.678Z</time>
      </trkpt>
      <trkpt lat="43.47949" lon="2.37437">
        <ele>324</ele>
        <time>2019-05-16T13:02:02.853Z</time>
      </trkpt>
      <trkpt lat="43.4794" lon="2.3743">
        <ele>326</ele>
        <time>2019-05-16T13:02:15.372Z</time>
      </trkpt>
      <trkpt lat="43.47906" lon="2.37404">
        <ele>339</ele>
        <time>2019-05-16T13:03:03.359Z</time>
      </trkpt>
      <trkpt lat="43.47863" lon="2.37335">
        <ele>345</ele>
        <time>2019-05-16T13:04:28.490Z</time>
      </trkpt>
      <trkpt lat="43.47849" lon="2.37333">
        <ele>339</ele>
        <time>2019-05-16T13:04:52.091Z</time>
      </trkpt>
      <trkpt lat="43.4784" lon="2.37329">
        <ele>345</ele>
        <time>2019-05-16T13:05:04.091Z</time>
      </trkpt>
      <trkpt lat="43.47838" lon="2.37326">
        <ele>344</ele>
        <time>2019-05-16T13:05:07.147Z</time>
      </trkpt>
      <trkpt lat="43.47837" lon="2.3732">
        <ele>340</ele>
        <time>2019-05-16T13:05:12.570Z</time>
      </trkpt>
      <trkpt lat="43.47836" lon="2.37315">
        <ele>337</ele>
        <time>2019-05-16T13:05:16.998Z</time>
      </trkpt>
      <trkpt lat="43.47836" lon="2.37314">
        <ele>337</ele>
        <time>2019-05-16T13:05:17.847Z</time>
      </trkpt>
      <trkpt lat="43.47835" lon="2.37308">
        <ele>334</ele>
        <time>2019-05-16T13:05:27.764Z</time>
      </trkpt>
      <trkpt lat="43.47806" lon="2.37364">
        <ele>372</ele>
        <time>2019-05-16T13:06:33.643Z</time>
      </trkpt>
      <trkpt lat="43.47802" lon="2.37372">
        <ele>374</ele>
        <time>2019-05-16T13:06:42.956Z</time>
      </trkpt>
      <trkpt lat="43.47846" lon="2.37373">
        <ele>352</ele>
        <time>2019-05-16T13:07:37.502Z</time>
      </trkpt>
      <trkpt lat="43.47849" lon="2.37376">
        <ele>352</ele>
        <time>2019-05-16T13:07:42.148Z</time>
      </trkpt>
      <trkpt lat="43.47856" lon="2.37385">
        <ele>353</ele>
        <time>2019-05-16T13:07:54.021Z</time>
      </trkpt>
      <trkpt lat="43.47858" lon="2.37387">
        <ele>353</ele>
        <time>2019-05-16T13:07:57.894Z</time>
      </trkpt>
      <trkpt lat="43.47862" lon="2.37387">
        <ele>351</ele>
        <time>2019-05-16T13:08:02.775Z</time>
      </trkpt>
      <trkpt lat="43.47863" lon="2.37388">
        <ele>351</ele>
        <time>2019-05-16T13:08:04.808Z</time>
      </trkpt>
      <trkpt lat="43.47866" lon="2.37389">
        <ele>351</ele>
        <time>2019-05-16T13:08:07.544Z</time>
      </trkpt>
      <trkpt lat="43.47867" lon="2.37395">
        <ele>351</ele>
        <time>2019-05-16T13:08:12.014Z</time>
      </trkpt>
      <trkpt lat="43.47865" lon="2.37395">
        <ele>352</ele>
        <time>2019-05-16T13:08:13.506Z</time>
      </trkpt>
      <trkpt lat="43.47862" lon="2.37393">
        <ele>353</ele>
        <time>2019-05-16T13:08:16.794Z</time>
      </trkpt>
      <trkpt lat="43.47858" lon="2.37388">
        <ele>353</ele>
        <time>2019-05-16T13:08:23.221Z</time>
      </trkpt>
      <trkpt lat="43.47866" lon="2.3741">
        <ele>354</ele>
        <time>2019-05-16T13:08:45.454Z</time>
      </trkpt>
      <trkpt lat="43.47862" lon="2.37411">
        <ele>357</ele>
        <time>2019-05-16T13:08:50.131Z</time>
      </trkpt>
      <trkpt lat="43.47863" lon="2.37416">
        <ele>357</ele>
        <time>2019-05-16T13:08:53.626Z</time>
      </trkpt>
      <trkpt lat="43.47863" lon="2.37418">
        <ele>368</ele>
        <time>2019-05-16T13:08:55.195Z</time>
      </trkpt>
      <trkpt lat="43.47864" lon="2.37421">
        <ele>368</ele>
        <time>2019-05-16T13:08:57.233Z</time>
      </trkpt>
      <trkpt lat="43.47865" lon="2.37425">
        <ele>368</ele>
        <time>2019-05-16T13:09:01.605Z</time>
      </trkpt>
      <trkpt lat="43.47868" lon="2.37448">
        <ele>367</ele>
        <time>2019-05-16T13:09:18.910Z</time>
      </trkpt>
      <trkpt lat="43.47869" lon="2.37455">
        <ele>367</ele>
        <time>2019-05-16T13:09:23.757Z</time>
      </trkpt>
      <trkpt lat="43.47867" lon="2.37452">
        <ele>368</ele>
        <time>2019-05-16T13:09:25.977Z</time>
      </trkpt>
      <trkpt lat="43.47865" lon="2.37448">
        <ele>368</ele>
        <time>2019-05-16T13:09:29.976Z</time>
      </trkpt>
      <trkpt lat="43.47864" lon="2.37446">
        <ele>368</ele>
        <time>2019-05-16T13:09:31.579Z</time>
      </trkpt>
      <trkpt lat="43.47863" lon="2.37441">
        <ele>369</ele>
        <time>2019-05-16T13:09:35.482Z</time>
      </trkpt>
      <trkpt lat="43.47863" lon="2.37443">
        <ele>368</ele>
        <time>2019-05-16T13:09:36.766Z</time>
      </trkpt>
      <trkpt lat="43.47865" lon="2.37452">
        <ele>368</ele>
        <time>2019-05-16T13:09:44.148Z</time>
      </trkpt>
      <trkpt lat="43.47866" lon="2.37454">
        <ele>368</ele>
        <time>2019-05-16T13:09:45.367Z</time>
      </trkpt>
      <trkpt lat="43.47861" lon="2.37458">
        <ele>370</ele>
        <time>2019-05-16T13:09:50.688Z</time>
      </trkpt>
      <trkpt lat="43.47858" lon="2.3746">
        <ele>371</ele>
        <time>2019-05-16T13:09:54.786Z</time>
      </trkpt>
      <trkpt lat="43.47854" lon="2.37456">
        <ele>371</ele>
        <time>2019-05-16T13:10:00.507Z</time>
      </trkpt>
      <trkpt lat="43.47851" lon="2.37455">
        <ele>372</ele>
        <time>2019-05-16T13:10:03.277Z</time>
      </trkpt>
      <trkpt lat="43.47848" lon="2.37455">
        <ele>372</ele>
        <time>2019-05-16T13:10:06.351Z</time>
      </trkpt>
      <trkpt lat="43.47844" lon="2.37455">
        <ele>373</ele>
        <time>2019-05-16T13:10:10.530Z</time>
      </trkpt>
      <trkpt lat="43.47841" lon="2.37449">
        <ele>373</ele>
        <time>2019-05-16T13:10:15.901Z</time>
      </trkpt>
      <trkpt lat="43.47836" lon="2.37439">
        <ele>375</ele>
        <time>2019-05-16T13:10:25.017Z</time>
      </trkpt>
      <trkpt lat="43.47835" lon="2.37445">
        <ele>374</ele>
        <time>2019-05-16T13:10:30.023Z</time>
      </trkpt>
      <trkpt lat="43.47831" lon="2.37442">
        <ele>386</ele>
        <time>2019-05-16T13:10:35.338Z</time>
      </trkpt>
      <trkpt lat="43.47828" lon="2.37434">
        <ele>386</ele>
        <time>2019-05-16T13:10:42.138Z</time>
      </trkpt>
      <trkpt lat="43.47827" lon="2.37429">
        <ele>385</ele>
        <time>2019-05-16T13:10:46.167Z</time>
      </trkpt>
      <trkpt lat="43.47825" lon="2.37426">
        <ele>385</ele>
        <time>2019-05-16T13:10:49.567Z</time>
      </trkpt>
      <trkpt lat="43.47821" lon="2.37418">
        <ele>385</ele>
        <time>2019-05-16T13:10:56.772Z</time>
      </trkpt>
      <trkpt lat="43.47819" lon="2.37414">
        <ele>380</ele>
        <time>2019-05-16T13:11:00.581Z</time>
      </trkpt>
      <trkpt lat="43.47815" lon="2.37407">
        <ele>379</ele>
        <time>2019-05-16T13:11:07.798Z</time>
      </trkpt>
      <trkpt lat="43.47813" lon="2.37405">
        <ele>379</ele>
        <time>2019-05-16T13:11:10.744Z</time>
      </trkpt>
      <trkpt lat="43.47811" lon="2.37401">
        <ele>378</ele>
        <time>2019-05-16T13:11:14.922Z</time>
      </trkpt>
      <trkpt lat="43.47808" lon="2.37399">
        <ele>378</ele>
        <time>2019-05-16T13:11:18.407Z</time>
      </trkpt>
      <trkpt lat="43.47787" lon="2.37388">
        <ele>377</ele>
        <time>2019-05-16T13:11:41.433Z</time>
      </trkpt>
      <trkpt lat="43.47786" lon="2.37387">
        <ele>377</ele>
        <time>2019-05-16T13:11:43.078Z</time>
      </trkpt>
      <trkpt lat="43.47783" lon="2.37386">
        <ele>377</ele>
        <time>2019-05-16T13:11:46.408Z</time>
      </trkpt>
      <trkpt lat="43.47781" lon="2.37384">
        <ele>377</ele>
        <time>2019-05-16T13:11:48.860Z</time>
      </trkpt>
      <trkpt lat="43.47777" lon="2.37382">
        <ele>377</ele>
        <time>2019-05-16T13:11:54.511Z</time>
      </trkpt>
      <trkpt lat="43.47765" lon="2.3738">
        <ele>378</ele>
        <time>2019-05-16T13:12:07.391Z</time>
      </trkpt>
      <trkpt lat="43.47756" lon="2.37377">
        <ele>378</ele>
        <time>2019-05-16T13:12:18.189Z</time>
      </trkpt>
      <trkpt lat="43.47751" lon="2.37382">
        <ele>379</ele>
        <time>2019-05-16T13:12:24.158Z</time>
      </trkpt>
      <trkpt lat="43.47799" lon="2.37444">
        <ele>386</ele>
        <time>2019-05-16T13:13:36.136Z</time>
      </trkpt>
      <trkpt lat="43.47808" lon="2.37479">
        <ele>387</ele>
        <time>2019-05-16T13:14:04.493Z</time>
      </trkpt>
      <trkpt lat="43.47826" lon="2.37502">
        <ele>390</ele>
        <time>2019-05-16T13:14:32.373Z</time>
      </trkpt>
      <trkpt lat="43.47833" lon="2.37538">
        <ele>381</ele>
        <time>2019-05-16T13:15:00.017Z</time>
      </trkpt>
      <trkpt lat="43.47823" lon="2.37562">
        <ele>383</ele>
        <time>2019-05-16T13:15:28.077Z</time>
      </trkpt>
      <trkpt lat="43.47853" lon="2.37637">
        <ele>379</ele>
        <time>2019-05-16T13:16:50.222Z</time>
      </trkpt>
      <trkpt lat="43.47861" lon="2.37673">
        <ele>379</ele>
        <time>2019-05-16T13:17:24.280Z</time>
      </trkpt>
      <trkpt lat="43.47863" lon="2.37678">
        <ele>379</ele>
        <time>2019-05-16T13:17:38.890Z</time>
      </trkpt>
      <trkpt lat="43.47863" lon="2.37696">
        <ele>378</ele>
        <time>2019-05-16T13:17:55.658Z</time>
      </trkpt>
      <trkpt lat="43.47851" lon="2.37713">
        <ele>378</ele>
        <time>2019-05-16T13:18:18.217Z</time>
      </trkpt>
      <trkpt lat="43.47854" lon="2.37719">
        <ele>377</ele>
        <time>2019-05-16T13:18:24.206Z</time>
      </trkpt>
      <trkpt lat="43.47854" lon="2.37719">
        <ele>377</ele>
        <time>2019-05-16T13:18:25.956Z</time>
      </trkpt>
      <trkpt lat="43.47854" lon="2.37719">
        <ele>377</ele>
        <time>2019-05-16T13:18:26.146Z</time>
      </trkpt>
      <trkpt lat="43.47854" lon="2.37719">
        <ele>377</ele>
        <time>2019-05-16T13:18:26.166Z</time>
      </trkpt>
      <trkpt lat="43.47789" lon="2.37762">
        <ele>364</ele>
        <time>2019-05-16T13:19:39.543Z</time>
      </trkpt>
      <trkpt lat="43.47723" lon="2.37805">
        <ele>386</ele>
        <time>2019-05-16T13:20:53.431Z</time>
      </trkpt>
      <trkpt lat="43.47658" lon="2.37847">
        <ele>435</ele>
        <time>2019-05-16T13:22:07.106Z</time>
      </trkpt>
      <trkpt lat="43.47657" lon="2.37847">
        <ele>435</ele>
        <time>2019-05-16T13:22:10.006Z</time>
      </trkpt>
      <trkpt lat="43.47658" lon="2.37852">
        <ele>436</ele>
        <time>2019-05-16T13:22:20.226Z</time>
      </trkpt>
      <trkpt lat="43.47656" lon="2.37852">
        <ele>436</ele>
        <time>2019-05-16T13:22:22.634Z</time>
      </trkpt>
      <trkpt lat="43.47651" lon="2.37875">
        <ele>437</ele>
        <time>2019-05-16T13:23:00.540Z</time>
      </trkpt>
      <trkpt lat="43.4764" lon="2.37881">
        <ele>438</ele>
        <time>2019-05-16T13:23:17.545Z</time>
      </trkpt>
      <trkpt lat="43.4764" lon="2.37873">
        <ele>439</ele>
        <time>2019-05-16T13:23:33.229Z</time>
      </trkpt>
      <trkpt lat="43.47603" lon="2.3787">
        <ele>447</ele>
        <time>2019-05-16T13:24:51.204Z</time>
      </trkpt>
      <trkpt lat="43.47611" lon="2.37853">
        <ele>449</ele>
        <time>2019-05-16T13:25:22.321Z</time>
      </trkpt>
      <trkpt lat="43.47579" lon="2.37859">
        <ele>468</ele>
        <time>2019-05-16T13:26:25.258Z</time>
      </trkpt>
      <trkpt lat="43.47578" lon="2.37856">
        <ele>469</ele>
        <time>2019-05-16T13:26:32.687Z</time>
      </trkpt>
      <trkpt lat="43.47578" lon="2.37853">
        <ele>470</ele>
        <time>2019-05-16T13:26:40.528Z</time>
      </trkpt>
      <trkpt lat="43.476" lon="2.37838">
        <ele>458</ele>
        <time>2019-05-16T13:27:33.325Z</time>
      </trkpt>
      <trkpt lat="43.47599" lon="2.37817">
        <ele>457</ele>
        <time>2019-05-16T13:28:05.388Z</time>
      </trkpt>
      <trkpt lat="43.47578" lon="2.37827">
        <ele>476</ele>
        <time>2019-05-16T13:28:54.240Z</time>
      </trkpt>
      <trkpt lat="43.47565" lon="2.37813">
        <ele>479</ele>
        <time>2019-05-16T13:29:31.726Z</time>
      </trkpt>
      <trkpt lat="43.47553" lon="2.37812">
        <ele>481</ele>
        <time>2019-05-16T13:30:02.115Z</time>
      </trkpt>
      <trkpt lat="43.47549" lon="2.37811">
        <ele>481</ele>
        <time>2019-05-16T13:30:12.725Z</time>
      </trkpt>
      <trkpt lat="43.4752" lon="2.37805">
        <ele>485</ele>
        <time>2019-05-16T13:31:19.989Z</time>
      </trkpt>
      <trkpt lat="43.47505" lon="2.37769">
        <ele>489</ele>
        <time>2019-05-16T13:32:29.909Z</time>
      </trkpt>
      <trkpt lat="43.47508" lon="2.37757">
        <ele>492</ele>
        <time>2019-05-16T13:32:54.288Z</time>
      </trkpt>
      <trkpt lat="43.47504" lon="2.37751">
        <ele>495</ele>
        <time>2019-05-16T13:33:07.897Z</time>
      </trkpt>
      <trkpt lat="43.47504" lon="2.37758">
        <ele>493</ele>
        <time>2019-05-16T13:33:20.126Z</time>
      </trkpt>
      <trkpt lat="43.47495" lon="2.37764">
        <ele>502</ele>
        <time>2019-05-16T13:33:35.075Z</time>
      </trkpt>
      <trkpt lat="43.47478" lon="2.37745">
        <ele>500</ele>
        <time>2019-05-16T13:34:25.851Z</time>
      </trkpt>
      <trkpt lat="43.47464" lon="2.37735">
        <ele>502</ele>
        <time>2019-05-16T13:34:53.851Z</time>
      </trkpt>
      <trkpt lat="43.47456" lon="2.3774">
        <ele>504</ele>
        <time>2019-05-16T13:35:17.128Z</time>
      </trkpt>
      <trkpt lat="43.47385" lon="2.37713">
        <ele>524</ele>
        <time>2019-05-16T13:37:44.624Z</time>
      </trkpt>
      <trkpt lat="43.47283" lon="2.37719">
        <ele>538</ele>
        <time>2019-05-16T13:40:28.566Z</time>
      </trkpt>
      <trkpt lat="43.47256" lon="2.3773">
        <ele>542</ele>
        <time>2019-05-16T13:41:06.589Z</time>
      </trkpt>
      <trkpt lat="43.47237" lon="2.3774">
        <ele>544</ele>
        <time>2019-05-16T13:41:34.667Z</time>
      </trkpt>
      <trkpt lat="43.47128" lon="2.37774">
        <ele>556</ele>
        <time>2019-05-16T13:44:07.282Z</time>
      </trkpt>
      <trkpt lat="43.47019" lon="2.37844">
        <ele>570</ele>
        <time>2019-05-16T13:46:57.729Z</time>
      </trkpt>
      <trkpt lat="43.46924" lon="2.37878">
        <ele>580</ele>
        <time>2019-05-16T13:49:40.793Z</time>
      </trkpt>
      <trkpt lat="43.46903" lon="2.37909">
        <ele>590</ele>
        <time>2019-05-16T13:50:35.248Z</time>
      </trkpt>
      <trkpt lat="43.46872" lon="2.379">
        <ele>594</ele>
        <time>2019-05-16T13:51:31.895Z</time>
      </trkpt>
      <trkpt lat="43.46835" lon="2.37913">
        <ele>603</ele>
        <time>2019-05-16T13:52:36.794Z</time>
      </trkpt>
      <trkpt lat="43.46821" lon="2.3793">
        <ele>611</ele>
        <time>2019-05-16T13:53:08.515Z</time>
      </trkpt>
      <trkpt lat="43.46813" lon="2.37942">
        <ele>614</ele>
        <time>2019-05-16T13:53:28.768Z</time>
      </trkpt>
      <trkpt lat="43.46786" lon="2.37961">
        <ele>617</ele>
        <time>2019-05-16T13:54:17.005Z</time>
      </trkpt>
      <trkpt lat="43.46741" lon="2.3797">
        <ele>627</ele>
        <time>2019-05-16T13:55:27.658Z</time>
      </trkpt>
      <trkpt lat="43.46606" lon="2.37918">
        <ele>640</ele>
        <time>2019-05-16T13:58:27.826Z</time>
      </trkpt>
      <trkpt lat="43.46567" lon="2.37913">
        <ele>647</ele>
        <time>2019-05-16T13:59:11.736Z</time>
      </trkpt>
      <trkpt lat="43.46481" lon="2.37928">
        <ele>650</ele>
        <time>2019-05-16T14:00:41.008Z</time>
      </trkpt>
      <trkpt lat="43.46436" lon="2.37901">
        <ele>645</ele>
        <time>2019-05-16T14:01:34.725Z</time>
      </trkpt>
      <trkpt lat="43.46394" lon="2.37899">
        <ele>637</ele>
        <time>2019-05-16T14:02:23.867Z</time>
      </trkpt>
      <trkpt lat="43.46384" lon="2.37897">
        <ele>636</ele>
        <time>2019-05-16T14:02:36.219Z</time>
      </trkpt>
      <trkpt lat="43.46325" lon="2.37897">
        <ele>625</ele>
        <time>2019-05-16T14:03:45.228Z</time>
      </trkpt>
      <trkpt lat="43.46295" lon="2.3792">
        <ele>628</ele>
        <time>2019-05-16T14:04:25.879Z</time>
      </trkpt>
      <trkpt lat="43.4629" lon="2.3792">
        <ele>628</ele>
        <time>2019-05-16T14:04:32.739Z</time>
      </trkpt>
      <trkpt lat="43.46304" lon="2.37883">
        <ele>621</ele>
        <time>2019-05-16T14:05:08.846Z</time>
      </trkpt>
      <trkpt lat="43.46325" lon="2.37843">
        <ele>619</ele>
        <time>2019-05-16T14:05:50.425Z</time>
      </trkpt>
      <trkpt lat="43.46333" lon="2.37832">
        <ele>619</ele>
        <time>2019-05-16T14:06:04.039Z</time>
      </trkpt>
      <trkpt lat="43.46347" lon="2.37813">
        <ele>624</ele>
        <time>2019-05-16T14:06:26.883Z</time>
      </trkpt>
      <trkpt lat="43.46354" lon="2.37785">
        <ele>625</ele>
        <time>2019-05-16T14:06:51.591Z</time>
      </trkpt>
      <trkpt lat="43.46318" lon="2.37646">
        <ele>613</ele>
        <time>2019-05-16T14:08:52.000Z</time>
      </trkpt>
      <trkpt lat="43.46346" lon="2.37483">
        <ele>611</ele>
        <time>2019-05-16T14:11:10.148Z</time>
      </trkpt>
      <trkpt lat="43.46342" lon="2.37419">
        <ele>606</ele>
        <time>2019-05-16T14:12:04.053Z</time>
      </trkpt>
      <trkpt lat="43.46337" lon="2.37401">
        <ele>604</ele>
        <time>2019-05-16T14:12:20.039Z</time>
      </trkpt>
      <trkpt lat="43.46327" lon="2.37377">
        <ele>597</ele>
        <time>2019-05-16T14:12:43.805Z</time>
      </trkpt>
      <trkpt lat="43.46322" lon="2.37349">
        <ele>597</ele>
        <time>2019-05-16T14:13:08.735Z</time>
      </trkpt>
      <trkpt lat="43.46322" lon="2.37349">
        <ele>597</ele>
        <time>2019-05-16T14:13:08.878Z</time>
      </trkpt>
      <trkpt lat="43.46322" lon="2.37349">
        <ele>597</ele>
        <time>2019-05-16T14:13:08.888Z</time>
      </trkpt>
      <trkpt lat="43.46251" lon="2.37309">
        <ele>589</ele>
        <time>2019-05-16T14:14:26.028Z</time>
      </trkpt>
      <trkpt lat="43.46179" lon="2.37269">
        <ele>580</ele>
        <time>2019-05-16T14:15:43.149Z</time>
      </trkpt>
      <trkpt lat="43.46108" lon="2.3723">
        <ele>574</ele>
        <time>2019-05-16T14:16:59.774Z</time>
      </trkpt>
      <trkpt lat="43.46109" lon="2.37228">
        <ele>574</ele>
        <time>2019-05-16T14:17:01.711Z</time>
      </trkpt>
      <trkpt lat="43.46098" lon="2.3722">
        <ele>574</ele>
        <time>2019-05-16T14:17:15.697Z</time>
      </trkpt>
      <trkpt lat="43.46008" lon="2.37176">
        <ele>568</ele>
        <time>2019-05-16T14:18:57.730Z</time>
      </trkpt>
      <trkpt lat="43.46003" lon="2.37121">
        <ele>573</ele>
        <time>2019-05-16T14:19:39.289Z</time>
      </trkpt>
      <trkpt lat="43.45987" lon="2.37071">
        <ele>575</ele>
        <time>2019-05-16T14:20:23.191Z</time>
      </trkpt>
      <trkpt lat="43.45927" lon="2.36991">
        <ele>576</ele>
        <time>2019-05-16T14:22:00.060Z</time>
      </trkpt>
      <trkpt lat="43.45924" lon="2.36984">
        <ele>577</ele>
        <time>2019-05-16T14:22:06.578Z</time>
      </trkpt>
      <trkpt lat="43.45927" lon="2.36979">
        <ele>578</ele>
        <time>2019-05-16T14:22:13.093Z</time>
      </trkpt>
      <trkpt lat="43.45925" lon="2.36938">
        <ele>581</ele>
        <time>2019-05-16T14:22:46.966Z</time>
      </trkpt>
      <trkpt lat="43.45937" lon="2.36901">
        <ele>585</ele>
        <time>2019-05-16T14:23:20.865Z</time>
      </trkpt>
      <trkpt lat="43.45954" lon="2.36853">
        <ele>586</ele>
        <time>2019-05-16T14:24:04.651Z</time>
      </trkpt>
      <trkpt lat="43.45957" lon="2.36839">
        <ele>586</ele>
        <time>2019-05-16T14:24:18.211Z</time>
      </trkpt>
      <trkpt lat="43.45992" lon="2.36725">
        <ele>581</ele>
        <time>2019-05-16T14:25:50.266Z</time>
      </trkpt>
      <trkpt lat="43.46007" lon="2.36669">
        <ele>574</ele>
        <time>2019-05-16T14:26:35.096Z</time>
      </trkpt>
      <trkpt lat="43.46016" lon="2.36634">
        <ele>567</ele>
        <time>2019-05-16T14:27:02.552Z</time>
      </trkpt>
      <trkpt lat="43.46022" lon="2.36604">
        <ele>566</ele>
        <time>2019-05-16T14:27:27.049Z</time>
      </trkpt>
      <trkpt lat="43.46024" lon="2.3658">
        <ele>561</ele>
        <time>2019-05-16T14:27:46.095Z</time>
      </trkpt>
      <trkpt lat="43.46025" lon="2.3657">
        <ele>560</ele>
        <time>2019-05-16T14:27:54.187Z</time>
      </trkpt>
      <trkpt lat="43.46018" lon="2.36543">
        <ele>558</ele>
        <time>2019-05-16T14:28:17.007Z</time>
      </trkpt>
      <trkpt lat="43.46004" lon="2.36526">
        <ele>559</ele>
        <time>2019-05-16T14:28:36.367Z</time>
      </trkpt>
      <trkpt lat="43.45987" lon="2.36509">
        <ele>567</ele>
        <time>2019-05-16T14:29:00.151Z</time>
      </trkpt>
      <trkpt lat="43.45955" lon="2.36458">
        <ele>569</ele>
        <time>2019-05-16T14:29:55.394Z</time>
      </trkpt>
      <trkpt lat="43.45956" lon="2.36443">
        <ele>569</ele>
        <time>2019-05-16T14:30:08.088Z</time>
      </trkpt>
      <trkpt lat="43.45952" lon="2.36441">
        <ele>570</ele>
        <time>2019-05-16T14:30:17.110Z</time>
      </trkpt>
      <trkpt lat="43.45966" lon="2.36346">
        <ele>572</ele>
        <time>2019-05-16T14:31:46.981Z</time>
      </trkpt>
      <trkpt lat="43.45963" lon="2.36233">
        <ele>584</ele>
        <time>2019-05-16T14:33:33.444Z</time>
      </trkpt>
      <trkpt lat="43.45967" lon="2.36207">
        <ele>584</ele>
        <time>2019-05-16T14:33:57.430Z</time>
      </trkpt>
      <trkpt lat="43.45972" lon="2.36103">
        <ele>585</ele>
        <time>2019-05-16T14:35:28.934Z</time>
      </trkpt>
      <trkpt lat="43.45961" lon="2.36024">
        <ele>584</ele>
        <time>2019-05-16T14:36:34.680Z</time>
      </trkpt>
      <trkpt lat="43.45954" lon="2.36009">
        <ele>585</ele>
        <time>2019-05-16T14:36:48.587Z</time>
      </trkpt>
      <trkpt lat="43.45942" lon="2.35982">
        <ele>585</ele>
        <time>2019-05-16T14:37:12.003Z</time>
      </trkpt>
      <trkpt lat="43.45917" lon="2.35898">
        <ele>588</ele>
        <time>2019-05-16T14:38:21.301Z</time>
      </trkpt>
      <trkpt lat="43.45885" lon="2.35853">
        <ele>603</ele>
        <time>2019-05-16T14:39:09.502Z</time>
      </trkpt>
      <trkpt lat="43.45882" lon="2.35819">
        <ele>610</ele>
        <time>2019-05-16T14:39:36.691Z</time>
      </trkpt>
      <trkpt lat="43.4589" lon="2.35808">
        <ele>610</ele>
        <time>2019-05-16T14:39:48.867Z</time>
      </trkpt>
      <trkpt lat="43.4593" lon="2.35814">
        <ele>599</ele>
        <time>2019-05-16T14:40:31.780Z</time>
      </trkpt>
      <trkpt lat="43.45963" lon="2.35802">
        <ele>597</ele>
        <time>2019-05-16T14:41:09.651Z</time>
      </trkpt>
      <trkpt lat="43.4603" lon="2.35616">
        <ele>616</ele>
        <time>2019-05-16T14:44:10.392Z</time>
      </trkpt>
      <trkpt lat="43.46097" lon="2.35529">
        <ele>626</ele>
        <time>2019-05-16T14:46:17.230Z</time>
      </trkpt>
      <trkpt lat="43.46107" lon="2.35499">
        <ele>641</ele>
        <time>2019-05-16T14:46:55.388Z</time>
      </trkpt>
      <trkpt lat="43.46086" lon="2.35517">
        <ele>632</ele>
        <time>2019-05-16T14:47:33.152Z</time>
      </trkpt>
      <trkpt lat="43.46064" lon="2.35519">
        <ele>640</ele>
        <time>2019-05-16T14:48:08.017Z</time>
      </trkpt>
      <trkpt lat="43.46083" lon="2.355">
        <ele>645</ele>
        <time>2019-05-16T14:48:46.641Z</time>
      </trkpt>
      <trkpt lat="43.46108" lon="2.35454">
        <ele>644</ele>
        <time>2019-05-16T14:49:48.484Z</time>
      </trkpt>
      <trkpt lat="43.46116" lon="2.35415">
        <ele>653</ele>
        <time>2019-05-16T14:50:32.375Z</time>
      </trkpt>
      <trkpt lat="43.46133" lon="2.35335">
        <ele>652</ele>
        <time>2019-05-16T14:51:54.850Z</time>
      </trkpt>
      <trkpt lat="43.46133" lon="2.35288">
        <ele>654</ele>
        <time>2019-05-16T14:52:39.198Z</time>
      </trkpt>
      <trkpt lat="43.46091" lon="2.3518">
        <ele>654</ele>
        <time>2019-05-16T14:54:23.774Z</time>
      </trkpt>
      <trkpt lat="43.46051" lon="2.35133">
        <ele>658</ele>
        <time>2019-05-16T14:55:21.512Z</time>
      </trkpt>
      <trkpt lat="43.46069" lon="2.35083">
        <ele>655</ele>
        <time>2019-05-16T14:56:06.423Z</time>
      </trkpt>
      <trkpt lat="43.46065" lon="2.35042">
        <ele>658</ele>
        <time>2019-05-16T14:56:40.506Z</time>
      </trkpt>
      <trkpt lat="43.46" lon="2.34974">
        <ele>675</ele>
        <time>2019-05-16T14:58:14.311Z</time>
      </trkpt>
      <trkpt lat="43.46" lon="2.34952">
        <ele>669</ele>
        <time>2019-05-16T14:58:32.723Z</time>
      </trkpt>
      <trkpt lat="43.46038" lon="2.34917">
        <ele>667</ele>
        <time>2019-05-16T14:59:24.634Z</time>
      </trkpt>
      <trkpt lat="43.46018" lon="2.34788">
        <ele>674</ele>
        <time>2019-05-16T15:01:02.899Z</time>
      </trkpt>
      <trkpt lat="43.46018" lon="2.34737">
        <ele>673</ele>
        <time>2019-05-16T15:01:40.812Z</time>
      </trkpt>
      <trkpt lat="43.46038" lon="2.34741">
        <ele>672</ele>
        <time>2019-05-16T15:02:01.429Z</time>
      </trkpt>
      <trkpt lat="43.46041" lon="2.34729">
        <ele>672</ele>
        <time>2019-05-16T15:02:11.475Z</time>
      </trkpt>
      <trkpt lat="43.46063" lon="2.34723">
        <ele>673</ele>
        <time>2019-05-16T15:02:34.256Z</time>
      </trkpt>
      <trkpt lat="43.46117" lon="2.34779">
        <ele>674</ele>
        <time>2019-05-16T15:03:44.417Z</time>
      </trkpt>
      <trkpt lat="43.46141" lon="2.34854">
        <ele>667</ele>
        <time>2019-05-16T15:04:45.852Z</time>
      </trkpt>
      <trkpt lat="43.46169" lon="2.34871">
        <ele>668</ele>
        <time>2019-05-16T15:05:18.265Z</time>
      </trkpt>
      <trkpt lat="43.4619" lon="2.34852">
        <ele>670</ele>
        <time>2019-05-16T15:05:46.395Z</time>
      </trkpt>
      <trkpt lat="43.46201" lon="2.34825">
        <ele>678</ele>
        <time>2019-05-16T15:06:14.534Z</time>
      </trkpt>
      <trkpt lat="43.46246" lon="2.34664">
        <ele>688</ele>
        <time>2019-05-16T15:08:43.478Z</time>
      </trkpt>
      <trkpt lat="43.4625" lon="2.34649">
        <ele>688</ele>
        <time>2019-05-16T15:08:58.528Z</time>
      </trkpt>
      <trkpt lat="43.46251" lon="2.34642">
        <ele>688</ele>
        <time>2019-05-16T15:09:04.914Z</time>
      </trkpt>
      <trkpt lat="43.46253" lon="2.34635">
        <ele>688</ele>
        <time>2019-05-16T15:09:11.369Z</time>
      </trkpt>
      <trkpt lat="43.4626" lon="2.34623">
        <ele>688</ele>
        <time>2019-05-16T15:09:23.663Z</time>
      </trkpt>
      <trkpt lat="43.46265" lon="2.34616">
        <ele>688</ele>
        <time>2019-05-16T15:09:31.636Z</time>
      </trkpt>
      <trkpt lat="43.46266" lon="2.34614">
        <ele>688</ele>
        <time>2019-05-16T15:09:34.437Z</time>
      </trkpt>
      <trkpt lat="43.4626" lon="2.34606">
        <ele>688</ele>
        <time>2019-05-16T15:09:44.842Z</time>
      </trkpt>
      <trkpt lat="43.46268" lon="2.34579">
        <ele>688</ele>
        <time>2019-05-16T15:10:08.280Z</time>
      </trkpt>
      <trkpt lat="43.46275" lon="2.34567">
        <ele>687</ele>
        <time>2019-05-16T15:10:21.886Z</time>
      </trkpt>
      <trkpt lat="43.46315" lon="2.34553">
        <ele>687</ele>
        <time>2019-05-16T15:11:08.281Z</time>
      </trkpt>
      <trkpt lat="43.46275" lon="2.34567">
        <ele>687</ele>
        <time>2019-05-16T15:11:53.502Z</time>
      </trkpt>
      <trkpt lat="43.46268" lon="2.34579">
        <ele>688</ele>
        <time>2019-05-16T15:12:04.838Z</time>
      </trkpt>
      <trkpt lat="43.4626" lon="2.34606">
        <ele>688</ele>
        <time>2019-05-16T15:12:25.955Z</time>
      </trkpt>
      <trkpt lat="43.46266" lon="2.34614">
        <ele>688</ele>
        <time>2019-05-16T15:12:34.900Z</time>
      </trkpt>
      <trkpt lat="43.46276" lon="2.34606">
        <ele>688</ele>
        <time>2019-05-16T15:12:46.471Z</time>
      </trkpt>
      <trkpt lat="43.46499" lon="2.34507">
        <ele>688</ele>
        <time>2019-05-16T15:16:42.038Z</time>
      </trkpt>
      <trkpt lat="43.46503" lon="2.345">
        <ele>687</ele>
        <time>2019-05-16T15:16:48.692Z</time>
      </trkpt>
      <trkpt lat="43.46507" lon="2.34483">
        <ele>686</ele>
        <time>2019-05-16T15:17:01.784Z</time>
      </trkpt>
      <trkpt lat="43.46513" lon="2.34451">
        <ele>686</ele>
        <time>2019-05-16T15:17:26.532Z</time>
      </trkpt>
      <trkpt lat="43.46521" lon="2.34456">
        <ele>686</ele>
        <time>2019-05-16T15:17:35.396Z</time>
      </trkpt>
      <trkpt lat="43.46526" lon="2.34462">
        <ele>686</ele>
        <time>2019-05-16T15:17:43.069Z</time>
      </trkpt>
      <trkpt lat="43.46529" lon="2.34466">
        <ele>686</ele>
        <time>2019-05-16T15:17:46.554Z</time>
      </trkpt>
      <trkpt lat="43.4656" lon="2.34476">
        <ele>686</ele>
        <time>2019-05-16T15:18:20.590Z</time>
      </trkpt>
      <trkpt lat="43.46606" lon="2.34494">
        <ele>687</ele>
        <time>2019-05-16T15:19:12.332Z</time>
      </trkpt>
      <trkpt lat="43.46626" lon="2.34491">
        <ele>688</ele>
        <time>2019-05-16T15:19:34.520Z</time>
      </trkpt>
      <trkpt lat="43.46651" lon="2.34521">
        <ele>683</ele>
        <time>2019-05-16T15:20:11.340Z</time>
      </trkpt>
      <trkpt lat="43.46701" lon="2.3455">
        <ele>679</ele>
        <time>2019-05-16T15:21:12.078Z</time>
      </trkpt>
      <trkpt lat="43.46718" lon="2.34553">
        <ele>679</ele>
        <time>2019-05-16T15:21:31.655Z</time>
      </trkpt>
      <trkpt lat="43.46747" lon="2.3456">
        <ele>678</ele>
        <time>2019-05-16T15:22:04.364Z</time>
      </trkpt>
      <trkpt lat="43.46767" lon="2.34572">
        <ele>680</ele>
        <time>2019-05-16T15:22:29.652Z</time>
      </trkpt>
      <trkpt lat="43.46854" lon="2.34675">
        <ele>673</ele>
        <time>2019-05-16T15:24:40.473Z</time>
      </trkpt>
      <trkpt lat="43.46909" lon="2.34761">
        <ele>664</ele>
        <time>2019-05-16T15:26:15.347Z</time>
      </trkpt>
      <trkpt lat="43.47004" lon="2.34848">
        <ele>662</ele>
        <time>2019-05-16T15:28:29.532Z</time>
      </trkpt>
      <trkpt lat="43.47004" lon="2.34898">
        <ele>658</ele>
        <time>2019-05-16T15:29:12.524Z</time>
      </trkpt>
      <trkpt lat="43.47035" lon="2.35052">
        <ele>646</ele>
        <time>2019-05-16T15:31:31.098Z</time>
      </trkpt>
      <trkpt lat="43.47069" lon="2.35111">
        <ele>641</ele>
        <time>2019-05-16T15:32:36.557Z</time>
      </trkpt>
      <trkpt lat="43.47072" lon="2.35116">
        <ele>641</ele>
        <time>2019-05-16T15:32:42.413Z</time>
      </trkpt>
      <trkpt lat="43.47147" lon="2.35289">
        <ele>629</ele>
        <time>2019-05-16T15:35:34.760Z</time>
      </trkpt>
      <trkpt lat="43.47153" lon="2.35367">
        <ele>618</ele>
        <time>2019-05-16T15:36:39.185Z</time>
      </trkpt>
      <trkpt lat="43.47198" lon="2.3548">
        <ele>628</ele>
        <time>2019-05-16T15:38:22.768Z</time>
      </trkpt>
      <trkpt lat="43.47188" lon="2.3554">
        <ele>624</ele>
        <time>2019-05-16T15:39:12.007Z</time>
      </trkpt>
      <trkpt lat="43.47131" lon="2.35635">
        <ele>611</ele>
        <time>2019-05-16T15:40:51.630Z</time>
      </trkpt>
      <trkpt lat="43.47101" lon="2.35669">
        <ele>612</ele>
        <time>2019-05-16T15:41:35.859Z</time>
      </trkpt>
      <trkpt lat="43.47093" lon="2.35691">
        <ele>614</ele>
        <time>2019-05-16T15:41:55.750Z</time>
      </trkpt>
      <trkpt lat="43.47042" lon="2.3592">
        <ele>602</ele>
        <time>2019-05-16T15:45:12.442Z</time>
      </trkpt>
      <trkpt lat="43.47046" lon="2.35987">
        <ele>600</ele>
        <time>2019-05-16T15:46:05.215Z</time>
      </trkpt>
      <trkpt lat="43.47081" lon="2.36058">
        <ele>596</ele>
        <time>2019-05-16T15:47:11.555Z</time>
      </trkpt>
      <trkpt lat="43.47068" lon="2.36141">
        <ele>589</ele>
        <time>2019-05-16T15:48:19.282Z</time>
      </trkpt>
      <trkpt lat="43.47073" lon="2.36215">
        <ele>588</ele>
        <time>2019-05-16T15:49:19.330Z</time>
      </trkpt>
      <trkpt lat="43.47055" lon="2.36248">
        <ele>587</ele>
        <time>2019-05-16T15:49:54.744Z</time>
      </trkpt>
      <trkpt lat="43.47046" lon="2.36269">
        <ele>588</ele>
        <time>2019-05-16T15:50:16.218Z</time>
      </trkpt>
      <trkpt lat="43.47038" lon="2.36291">
        <ele>588</ele>
        <time>2019-05-16T15:50:36.254Z</time>
      </trkpt>
      <trkpt lat="43.47026" lon="2.36326">
        <ele>586</ele>
        <time>2019-05-16T15:51:10.063Z</time>
      </trkpt>
      <trkpt lat="43.47025" lon="2.36394">
        <ele>586</ele>
        <time>2019-05-16T15:52:06.701Z</time>
      </trkpt>
      <trkpt lat="43.4702" lon="2.36398">
        <ele>584</ele>
        <time>2019-05-16T15:52:14.317Z</time>
      </trkpt>
      <trkpt lat="43.47014" lon="2.36396">
        <ele>583</ele>
        <time>2019-05-16T15:52:21.521Z</time>
      </trkpt>
      <trkpt lat="43.46963" lon="2.36263">
        <ele>562</ele>
        <time>2019-05-16T15:54:25.098Z</time>
      </trkpt>
      <trkpt lat="43.46962" lon="2.3623">
        <ele>561</ele>
        <time>2019-05-16T15:54:49.616Z</time>
      </trkpt>
      <trkpt lat="43.4698" lon="2.36158">
        <ele>564</ele>
        <time>2019-05-16T15:55:46.763Z</time>
      </trkpt>
      <trkpt lat="43.46973" lon="2.36075">
        <ele>567</ele>
        <time>2019-05-16T15:56:55.834Z</time>
      </trkpt>
      <trkpt lat="43.4695" lon="2.36055">
        <ele>565</ele>
        <time>2019-05-16T15:57:27.279Z</time>
      </trkpt>
      <trkpt lat="43.46933" lon="2.36004">
        <ele>564</ele>
        <time>2019-05-16T15:58:14.425Z</time>
      </trkpt>
      <trkpt lat="43.46911" lon="2.35976">
        <ele>571</ele>
        <time>2019-05-16T15:58:48.217Z</time>
      </trkpt>
      <trkpt lat="43.46892" lon="2.36036">
        <ele>569</ele>
        <time>2019-05-16T15:59:38.106Z</time>
      </trkpt>
      <trkpt lat="43.46881" lon="2.36146">
        <ele>564</ele>
        <time>2019-05-16T16:01:04.738Z</time>
      </trkpt>
      <trkpt lat="43.46853" lon="2.36208">
        <ele>558</ele>
        <time>2019-05-16T16:02:05.813Z</time>
      </trkpt>
      <trkpt lat="43.46823" lon="2.3632">
        <ele>549</ele>
        <time>2019-05-16T16:03:52.408Z</time>
      </trkpt>
      <trkpt lat="43.46787" lon="2.36406">
        <ele>540</ele>
        <time>2019-05-16T16:05:23.052Z</time>
      </trkpt>
      <trkpt lat="43.46749" lon="2.36449">
        <ele>537</ele>
        <time>2019-05-16T16:06:23.994Z</time>
      </trkpt>
      <trkpt lat="43.46738" lon="2.36464">
        <ele>533</ele>
        <time>2019-05-16T16:06:44.866Z</time>
      </trkpt>
      <trkpt lat="43.46773" lon="2.36439">
        <ele>527</ele>
        <time>2019-05-16T16:07:33.556Z</time>
      </trkpt>
      <trkpt lat="43.46789" lon="2.36428">
        <ele>525</ele>
        <time>2019-05-16T16:07:54.209Z</time>
      </trkpt>
      <trkpt lat="43.46796" lon="2.36421">
        <ele>524</ele>
        <time>2019-05-16T16:08:04.416Z</time>
      </trkpt>
      <trkpt lat="43.46797" lon="2.36429">
        <ele>524</ele>
        <time>2019-05-16T16:08:14.552Z</time>
      </trkpt>
      <trkpt lat="43.46698" lon="2.36527">
        <ele>512</ele>
        <time>2019-05-16T16:10:35.238Z</time>
      </trkpt>
      <trkpt lat="43.46564" lon="2.36544">
        <ele>512</ele>
        <time>2019-05-16T16:12:58.533Z</time>
      </trkpt>
      <trkpt lat="43.46542" lon="2.36543">
        <ele>512</ele>
        <time>2019-05-16T16:13:20.246Z</time>
      </trkpt>
      <trkpt lat="43.46513" lon="2.36525">
        <ele>516</ele>
        <time>2019-05-16T16:13:53.292Z</time>
      </trkpt>
      <trkpt lat="43.46501" lon="2.36525">
        <ele>516</ele>
        <time>2019-05-16T16:14:06.671Z</time>
      </trkpt>
      <trkpt lat="43.46472" lon="2.36561">
        <ele>512</ele>
        <time>2019-05-16T16:14:48.874Z</time>
      </trkpt>
      <trkpt lat="43.46433" lon="2.36501">
        <ele>518</ele>
        <time>2019-05-16T16:15:55.724Z</time>
      </trkpt>
      <trkpt lat="43.464" lon="2.36477">
        <ele>526</ele>
        <time>2019-05-16T16:16:40.322Z</time>
      </trkpt>
      <trkpt lat="43.46309" lon="2.36494">
        <ele>520</ele>
        <time>2019-05-16T16:18:25.506Z</time>
      </trkpt>
      <trkpt lat="43.4627" lon="2.36464">
        <ele>522</ele>
        <time>2019-05-16T16:19:20.113Z</time>
      </trkpt>
      <trkpt lat="43.46211" lon="2.36508">
        <ele>519</ele>
        <time>2019-05-16T16:20:42.128Z</time>
      </trkpt>
      <trkpt lat="43.46211" lon="2.3653">
        <ele>520</ele>
        <time>2019-05-16T16:21:02.237Z</time>
      </trkpt>
      <trkpt lat="43.46246" lon="2.36548">
        <ele>521</ele>
        <time>2019-05-16T16:21:50.508Z</time>
      </trkpt>
      <trkpt lat="43.46261" lon="2.36559">
        <ele>521</ele>
        <time>2019-05-16T16:22:12.464Z</time>
      </trkpt>
      <trkpt lat="43.46274" lon="2.36564">
        <ele>520</ele>
        <time>2019-05-16T16:22:29.856Z</time>
      </trkpt>
      <trkpt lat="43.4632" lon="2.36631">
        <ele>528</ele>
        <time>2019-05-16T16:23:54.235Z</time>
      </trkpt>
      <trkpt lat="43.46318" lon="2.36657">
        <ele>530</ele>
        <time>2019-05-16T16:24:19.137Z</time>
      </trkpt>
      <trkpt lat="43.46327" lon="2.36699">
        <ele>538</ele>
        <time>2019-05-16T16:24:58.806Z</time>
      </trkpt>
      <trkpt lat="43.46352" lon="2.36757">
        <ele>541</ele>
        <time>2019-05-16T16:25:55.190Z</time>
      </trkpt>
      <trkpt lat="43.46434" lon="2.36796">
        <ele>533</ele>
        <time>2019-05-16T16:27:23.837Z</time>
      </trkpt>
      <trkpt lat="43.46477" lon="2.368">
        <ele>529</ele>
        <time>2019-05-16T16:28:11.020Z</time>
      </trkpt>
      <trkpt lat="43.46516" lon="2.3685">
        <ele>532</ele>
        <time>2019-05-16T16:29:11.407Z</time>
      </trkpt>
      <trkpt lat="43.46565" lon="2.36861">
        <ele>528</ele>
        <time>2019-05-16T16:30:09.286Z</time>
      </trkpt>
      <trkpt lat="43.46595" lon="2.36827">
        <ele>512</ele>
        <time>2019-05-16T16:30:55.148Z</time>
      </trkpt>
      <trkpt lat="43.46669" lon="2.368">
        <ele>513</ele>
        <time>2019-05-16T16:32:25.526Z</time>
      </trkpt>
      <trkpt lat="43.46753" lon="2.36743">
        <ele>499</ele>
        <time>2019-05-16T16:34:14.551Z</time>
      </trkpt>
      <trkpt lat="43.46827" lon="2.36752">
        <ele>496</ele>
        <time>2019-05-16T16:35:39.979Z</time>
      </trkpt>
      <trkpt lat="43.46909" lon="2.36794">
        <ele>489</ele>
        <time>2019-05-16T16:37:16.508Z</time>
      </trkpt>
      <trkpt lat="43.46925" lon="2.36806">
        <ele>481</ele>
        <time>2019-05-16T16:37:37.650Z</time>
      </trkpt>
      <trkpt lat="43.46942" lon="2.36842">
        <ele>483</ele>
        <time>2019-05-16T16:38:12.505Z</time>
      </trkpt>
      <trkpt lat="43.46989" lon="2.36902">
        <ele>481</ele>
        <time>2019-05-16T16:39:22.523Z</time>
      </trkpt>
      <trkpt lat="43.4703" lon="2.36907">
        <ele>468</ele>
        <time>2019-05-16T16:40:06.011Z</time>
      </trkpt>
      <trkpt lat="43.47046" lon="2.3691">
        <ele>466</ele>
        <time>2019-05-16T16:40:23.736Z</time>
      </trkpt>
      <trkpt lat="43.47064" lon="2.36933">
        <ele>472</ele>
        <time>2019-05-16T16:40:49.127Z</time>
      </trkpt>
      <trkpt lat="43.47138" lon="2.3699">
        <ele>452</ele>
        <time>2019-05-16T16:42:15.180Z</time>
      </trkpt>
      <trkpt lat="43.47165" lon="2.37093">
        <ele>470</ele>
        <time>2019-05-16T16:43:43.429Z</time>
      </trkpt>
      <trkpt lat="43.47163" lon="2.37173">
        <ele>485</ele>
        <time>2019-05-16T16:44:48.399Z</time>
      </trkpt>
      <trkpt lat="43.47206" lon="2.37297">
        <ele>470</ele>
        <time>2019-05-16T16:46:31.649Z</time>
      </trkpt>
      <trkpt lat="43.47214" lon="2.37319">
        <ele>469</ele>
        <time>2019-05-16T16:46:49.559Z</time>
      </trkpt>
      <trkpt lat="43.47211" lon="2.37475">
        <ele>484</ele>
        <time>2019-05-16T16:48:44.268Z</time>
      </trkpt>
      <trkpt lat="43.47222" lon="2.37522">
        <ele>488</ele>
        <time>2019-05-16T16:49:20.158Z</time>
      </trkpt>
      <trkpt lat="43.47283" lon="2.37556">
        <ele>480</ele>
        <time>2019-05-16T16:50:28.561Z</time>
      </trkpt>
      <trkpt lat="43.47349" lon="2.37565">
        <ele>474</ele>
        <time>2019-05-16T16:51:43.895Z</time>
      </trkpt>
      <trkpt lat="43.4742" lon="2.37623">
        <ele>479</ele>
        <time>2019-05-16T16:53:09.301Z</time>
      </trkpt>
      <trkpt lat="43.47441" lon="2.37658">
        <ele>485</ele>
        <time>2019-05-16T16:53:43.768Z</time>
      </trkpt>
      <trkpt lat="43.47457" lon="2.37688">
        <ele>498</ele>
        <time>2019-05-16T16:54:14.199Z</time>
      </trkpt>
      <trkpt lat="43.47478" lon="2.37727">
        <ele>499</ele>
        <time>2019-05-16T16:54:56.010Z</time>
      </trkpt>
      <trkpt lat="43.47504" lon="2.37751">
        <ele>495</ele>
        <time>2019-05-16T16:55:33.941Z</time>
      </trkpt>
      <trkpt lat="43.47508" lon="2.37757">
        <ele>492</ele>
        <time>2019-05-16T16:55:42.598Z</time>
      </trkpt>
      <trkpt lat="43.47505" lon="2.37769">
        <ele>489</ele>
        <time>2019-05-16T16:55:56.568Z</time>
      </trkpt>
      <trkpt lat="43.4752" lon="2.37805">
        <ele>485</ele>
        <time>2019-05-16T16:56:37.100Z</time>
      </trkpt>
      <trkpt lat="43.47549" lon="2.37811">
        <ele>481</ele>
        <time>2019-05-16T16:57:17.214Z</time>
      </trkpt>
      <trkpt lat="43.47553" lon="2.37812">
        <ele>481</ele>
        <time>2019-05-16T16:57:24.808Z</time>
      </trkpt>
      <trkpt lat="43.47565" lon="2.37813">
        <ele>479</ele>
        <time>2019-05-16T16:57:43.430Z</time>
      </trkpt>
      <trkpt lat="43.47578" lon="2.37827">
        <ele>476</ele>
        <time>2019-05-16T16:58:06.458Z</time>
      </trkpt>
      <trkpt lat="43.47599" lon="2.37817">
        <ele>457</ele>
        <time>2019-05-16T16:58:42.989Z</time>
      </trkpt>
      <trkpt lat="43.476" lon="2.37838">
        <ele>458</ele>
        <time>2019-05-16T16:59:04.808Z</time>
      </trkpt>
      <trkpt lat="43.47578" lon="2.37853">
        <ele>470</ele>
        <time>2019-05-16T16:59:46.094Z</time>
      </trkpt>
      <trkpt lat="43.47578" lon="2.37856">
        <ele>469</ele>
        <time>2019-05-16T16:59:51.637Z</time>
      </trkpt>
      <trkpt lat="43.47579" lon="2.37859">
        <ele>468</ele>
        <time>2019-05-16T16:59:56.859Z</time>
      </trkpt>
      <trkpt lat="43.47611" lon="2.37853">
        <ele>449</ele>
        <time>2019-05-16T17:00:46.315Z</time>
      </trkpt>
      <trkpt lat="43.47603" lon="2.3787">
        <ele>447</ele>
        <time>2019-05-16T17:01:09.047Z</time>
      </trkpt>
      <trkpt lat="43.4764" lon="2.37873">
        <ele>439</ele>
        <time>2019-05-16T17:02:08.953Z</time>
      </trkpt>
      <trkpt lat="43.4764" lon="2.37881">
        <ele>438</ele>
        <time>2019-05-16T17:02:18.822Z</time>
      </trkpt>
      <trkpt lat="43.47651" lon="2.37875">
        <ele>437</ele>
        <time>2019-05-16T17:02:36.627Z</time>
      </trkpt>
      <trkpt lat="43.47656" lon="2.37852">
        <ele>436</ele>
        <time>2019-05-16T17:03:04.365Z</time>
      </trkpt>
      <trkpt lat="43.47658" lon="2.37852">
        <ele>436</ele>
        <time>2019-05-16T17:03:06.293Z</time>
      </trkpt>
      <trkpt lat="43.47662" lon="2.37851">
        <ele>435</ele>
        <time>2019-05-16T17:03:15.376Z</time>
      </trkpt>
      <trkpt lat="43.47662" lon="2.37851">
        <ele>435</ele>
        <time>2019-05-16T17:03:16.237Z</time>
      </trkpt>
      <trkpt lat="43.47662" lon="2.37851">
        <ele>435</ele>
        <time>2019-05-16T17:03:16.337Z</time>
      </trkpt>
      <trkpt lat="43.47662" lon="2.37851">
        <ele>435</ele>
        <time>2019-05-16T17:03:16.347Z</time>
      </trkpt>
      <trkpt lat="43.47728" lon="2.37809">
        <ele>385</ele>
        <time>2019-05-16T17:04:29.794Z</time>
      </trkpt>
      <trkpt lat="43.47793" lon="2.37768">
        <ele>364</ele>
        <time>2019-05-16T17:05:42.876Z</time>
      </trkpt>
      <trkpt lat="43.47858" lon="2.37726">
        <ele>377</ele>
        <time>2019-05-16T17:06:55.648Z</time>
      </trkpt>
      <trkpt lat="43.47854" lon="2.37719">
        <ele>377</ele>
        <time>2019-05-16T17:07:03.647Z</time>
      </trkpt>
      <trkpt lat="43.47851" lon="2.37713">
        <ele>378</ele>
        <time>2019-05-16T17:07:10.153Z</time>
      </trkpt>
      <trkpt lat="43.47863" lon="2.37696">
        <ele>378</ele>
        <time>2019-05-16T17:07:32.873Z</time>
      </trkpt>
      <trkpt lat="43.47863" lon="2.37678">
        <ele>379</ele>
        <time>2019-05-16T17:07:48.860Z</time>
      </trkpt>
      <trkpt lat="43.47861" lon="2.37673">
        <ele>379</ele>
        <time>2019-05-16T17:07:53.116Z</time>
      </trkpt>
      <trkpt lat="43.47865" lon="2.37661">
        <ele>379</ele>
        <time>2019-05-16T17:08:05.384Z</time>
      </trkpt>
      <trkpt lat="43.47934" lon="2.37768">
        <ele>368</ele>
        <time>2019-05-16T17:10:06.256Z</time>
      </trkpt>
      <trkpt lat="43.47933" lon="2.37797">
        <ele>367</ele>
        <time>2019-05-16T17:10:31.086Z</time>
      </trkpt>
      <trkpt lat="43.47938" lon="2.378">
        <ele>366</ele>
        <time>2019-05-16T17:10:37.276Z</time>
      </trkpt>
      <trkpt lat="43.47966" lon="2.37828">
        <ele>365</ele>
        <time>2019-05-16T17:11:16.442Z</time>
      </trkpt>
      <trkpt lat="43.47989" lon="2.3783">
        <ele>364</ele>
        <time>2019-05-16T17:11:42.072Z</time>
      </trkpt>
      <trkpt lat="43.47997" lon="2.37816">
        <ele>363</ele>
        <time>2019-05-16T17:11:57.237Z</time>
      </trkpt>
      <trkpt lat="43.48038" lon="2.37793">
        <ele>345</ele>
        <time>2019-05-16T17:12:59.441Z</time>
      </trkpt>
      <trkpt lat="43.48057" lon="2.37783">
        <ele>341</ele>
        <time>2019-05-16T17:13:27.796Z</time>
      </trkpt>
      <trkpt lat="43.48058" lon="2.37783">
        <ele>341</ele>
        <time>2019-05-16T17:13:29.834Z</time>
      </trkpt>
      <trkpt lat="43.48116" lon="2.37779">
        <ele>326</ele>
        <time>2019-05-16T17:14:54.272Z</time>
      </trkpt>
      <trkpt lat="43.48128" lon="2.37754">
        <ele>321</ele>
        <time>2019-05-16T17:15:20.617Z</time>
      </trkpt>
      <trkpt lat="43.48134" lon="2.37754">
        <ele>320</ele>
        <time>2019-05-16T17:15:31.417Z</time>
      </trkpt>
      <trkpt lat="43.48135" lon="2.37749">
        <ele>301</ele>
        <time>2019-05-16T17:15:40.927Z</time>
      </trkpt>
      <trkpt lat="43.48177" lon="2.37743">
        <ele>298</ele>
        <time>2019-05-16T17:16:36.098Z</time>
      </trkpt>
      <trkpt lat="43.48195" lon="2.37711">
        <ele>292</ele>
        <time>2019-05-16T17:17:17.379Z</time>
      </trkpt>
      <trkpt lat="43.48207" lon="2.37688">
        <ele>289</ele>
        <time>2019-05-16T17:17:40.081Z</time>
      </trkpt>
    </trkseg>
  </trk>
</gpx>